Time;durP1;ratioP1;P1;durP2;ratioP2;P2;SDS_P1;SDS_P2;PMS_P1;PMS_P2;Temp;Humidity;BMP_temperature;BMP_pressure;BME280_temperature;BME280_humidity;BME280_pressure;Samples;Min_cycle;Max_cycle;Signal;HPM_P1;HPM_P2
2022/11/22 00:00:40;;;;;;;;;0.00;0.00;;;;;7.14;74.90;97594.06;5114031;28;8848;-58
2022/11/22 00:03:08;;;;;;;;;1.00;1.00;;;;;7.14;74.40;97575.56;5114879;28;8816;-57
2022/11/22 00:05:36;;;;;;;;;0.00;0.00;;;;;7.14;74.64;97580.84;5115849;28;8819;-58
2022/11/22 00:08:04;;;;;;;;;0.60;0.00;;;;;7.12;74.79;97573.06;5115423;28;8878;-57
2022/11/22 00:10:32;;;;;;;;;0.00;0.00;;;;;7.11;74.67;97570.56;5115169;28;9485;-57
2022/11/22 00:12:59;;;;;;;;;1.00;1.00;;;;;7.12;74.85;97564.31;5115402;28;8823;-57
2022/11/22 00:15:28;;;;;;;;;0.00;0.00;;;;;7.11;74.97;97570.56;5114621;28;9598;-57
2022/11/22 00:17:56;;;;;;;;;1.00;0.00;;;;;7.10;74.86;97561.81;5115852;28;8847;-57
2022/11/22 00:20:24;;;;;;;;;0.00;0.00;;;;;7.11;75.06;97576.69;5117682;28;8855;-57
2022/11/22 00:22:51;;;;;;;;;0.00;0.00;;;;;7.10;74.90;97574.19;5118451;28;8832;-57
2022/11/22 00:25:19;;;;;;;;;0.00;0.00;;;;;7.10;74.96;97563.59;5119339;28;8812;-55
2022/11/22 00:27:47;;;;;;;;;0.50;0.50;;;;;7.11;74.92;97565.25;5118236;28;8840;-56
2022/11/22 00:30:15;;;;;;;;;0.25;0.25;;;;;7.11;75.09;97557.31;5118187;28;8831;-55
2022/11/22 00:32:43;;;;;;;;;0.00;0.00;;;;;7.11;74.95;97549.38;5118266;28;8834;-56
2022/11/22 00:35:11;;;;;;;;;0.20;0.20;;;;;7.10;75.01;97545.09;5117820;28;8916;-56
2022/11/22 00:37:39;;;;;;;;;1.00;1.00;;;;;7.08;75.02;97539.13;5118564;28;8831;-57
2022/11/22 00:40:06;;;;;;;;;1.00;0.80;;;;;7.08;75.22;97533.84;5117795;28;8824;-58
2022/11/22 00:42:34;;;;;;;;;0.00;0.00;;;;;7.07;75.18;97537.47;5118385;28;8916;-57
2022/11/22 00:45:02;;;;;;;;;1.00;0.00;;;;;7.07;75.20;97529.53;5119114;28;8832;-57
2022/11/22 00:47:29;;;;;;;;;0.00;0.00;;;;;7.05;75.27;97526.25;5119222;28;8816;-55
2022/11/22 00:49:57;;;;;;;;;0.40;0.40;;;;;7.04;75.38;97537.81;5118712;28;8824;-56
2022/11/22 00:52:25;;;;;;;;;0.60;0.60;;;;;7.02;75.04;97534.47;5119062;28;8819;-57
2022/11/22 00:54:53;;;;;;;;;0.40;0.00;;;;;7.00;75.64;97533.81;5118768;28;8913;-57
2022/11/22 00:57:21;;;;;;;;;0.00;0.00;;;;;6.97;75.35;97512.97;5118825;28;8853;-57
2022/11/22 00:59:49;;;;;;;;;0.00;0.00;;;;;6.95;75.78;97510.47;5119175;28;8835;-57
2022/11/22 01:02:16;;;;;;;;;1.00;1.00;;;;;6.93;75.61;97530.97;5118179;28;8827;-58
2022/11/22 01:04:44;;;;;;;;;1.00;1.00;;;;;6.94;75.59;97543.22;5117956;28;8942;-56
2022/11/22 01:07:12;;;;;;;;;0.80;0.60;;;;;6.95;76.25;97533.44;5117823;28;8824;-57
2022/11/22 01:09:40;;;;;;;;;0.00;0.00;;;;;6.95;76.22;97518.41;5118064;28;8862;-58
2022/11/22 01:12:07;;;;;;;;;1.00;1.00;;;;;6.96;75.86;97525.38;5117823;28;8820;-58
2022/11/22 01:14:35;;;;;;;;;0.00;0.00;;;;;6.98;75.75;97539.25;5118336;28;8823;-57
2022/11/22 01:17:03;;;;;;;;;0.40;0.40;;;;;7.02;76.22;97545.06;5118711;28;8820;-56
2022/11/22 01:19:32;;;;;;;;;0.00;0.00;;;;;7.03;75.86;97528.19;5118553;28;8816;-58
2022/11/22 01:22:00;;;;;;;;;0.40;0.40;;;;;7.05;75.84;97518.31;5118727;28;8924;-55
2022/11/22 01:24:28;;;;;;;;;0.20;0.00;;;;;7.07;75.55;97524.25;5118278;28;8811;-56
2022/11/22 01:26:55;;;;;;;;;0.40;0.00;;;;;7.07;76.06;97533.03;5118188;28;8816;-57
2022/11/22 01:29:23;;;;;;;;;0.00;0.00;;;;;7.11;75.68;97531.72;5118373;28;8835;-56
2022/11/22 01:31:52;;;;;;;;;0.00;0.00;;;;;7.14;75.68;97523.44;5116953;28;9521;-56
2022/11/22 01:34:19;;;;;;;;;1.00;1.00;;;;;7.19;75.55;97530.94;5118782;28;8862;-56
2022/11/22 01:36:47;;;;;;;;;1.00;1.00;;;;;7.22;75.50;97535.88;5118286;28;8915;-57
2022/11/22 01:39:15;;;;;;;;;0.60;0.60;;;;;7.24;75.65;97540.03;5118425;28;8815;-56
2022/11/22 01:41:42;;;;;;;;;0.50;0.00;;;;;7.29;75.98;97542.19;5118260;28;8920;-58
2022/11/22 01:44:11;;;;;;;;;1.00;1.00;;;;;7.31;75.54;97556.09;5117504;28;8836;-55
2022/11/22 01:46:39;;;;;;;;;0.00;0.00;;;;;7.34;75.44;97553.13;5118121;28;8820;-57
2022/11/22 01:49:07;;;;;;;;;0.00;0.00;;;;;7.37;75.41;97550.16;5118046;28;8832;-57
2022/11/22 01:51:34;;;;;;;;;0.00;0.00;;;;;7.41;75.13;97554.97;5118123;28;8840;-57
2022/11/22 01:54:02;;;;;;;;;1.00;1.00;;;;;7.43;75.31;97552.97;5117261;28;8888;-57
2022/11/22 01:56:30;;;;;;;;;1.00;1.00;;;;;7.43;75.29;97550.34;5117760;28;8824;-57
2022/11/22 01:58:58;;;;;;;;;0.00;0.00;;;;;7.41;75.48;97554.13;5117567;28;8899;-57
2022/11/22 02:01:26;;;;;;;;;0.20;0.20;;;;;7.34;75.65;97561.09;5117599;28;8808;-57
2022/11/22 02:03:54;;;;;;;;;1.00;1.00;;;;;7.29;76.01;97563.38;5117385;28;8959;-57
2022/11/22 02:06:21;;;;;;;;;1.00;0.40;;;;;7.24;76.05;97570.94;5117966;28;8835;-56
2022/11/22 02:08:49;;;;;;;;;0.00;0.00;;;;;7.19;76.29;97570.63;5117763;28;8891;-56
2022/11/22 02:11:17;;;;;;;;;0.00;0.00;;;;;7.16;76.61;97573.56;5117745;28;8838;-57
2022/11/22 02:13:44;;;;;;;;;0.00;0.00;;;;;7.11;76.91;97567.91;5117978;28;8846;-57
2022/11/22 02:16:12;;;;;;;;;0.60;0.60;;;;;7.06;77.18;97572.88;5117270;28;8827;-57
2022/11/22 02:18:39;;;;;;;;;1.00;1.00;;;;;7.02;77.28;97575.00;5117039;28;8896;-57
2022/11/22 02:21:07;;;;;;;;;1.00;1.00;;;;;6.98;77.31;97578.13;5116800;28;9545;-57
2022/11/22 02:23:35;;;;;;;;;1.00;1.00;;;;;6.96;77.61;97580.09;5117198;28;8847;-56
2022/11/22 02:26:02;;;;;;;;;0.80;0.80;;;;;6.94;78.00;97585.53;5116857;28;8827;-56
2022/11/22 02:28:30;;;;;;;;;1.40;1.40;;;;;6.92;77.98;97586.69;5116821;28;8824;-57
2022/11/22 02:30:58;;;;;;;;;0.40;0.40;;;;;6.92;77.69;97581.38;5117244;28;9489;-57
2022/11/22 02:33:25;;;;;;;;;1.00;1.00;;;;;6.91;78.21;97580.53;5116847;28;9611;-55
2022/11/22 02:35:53;;;;;;;;;1.00;1.00;;;;;6.91;78.31;97574.44;5116890;28;8848;-56
2022/11/22 02:38:21;;;;;;;;;1.00;0.00;;;;;6.92;78.08;97562.88;5116895;28;8823;-56
2022/11/22 02:40:48;;;;;;;;;1.00;1.00;;;;;6.94;78.00;97582.06;5117200;28;9532;-57
2022/11/22 02:43:16;;;;;;;;;1.00;1.00;;;;;6.96;78.22;97593.34;5116582;28;8820;-56
2022/11/22 02:45:47;;;;;;;;;1.00;1.00;;;;;7.00;78.46;97597.31;5116850;28;9470;-56
2022/11/22 02:48:15;;;;;;;;;1.00;1.00;;;;;7.01;78.51;97596.31;5116425;28;8839;-57
2022/11/22 02:50:42;;;;;;;;;1.00;1.00;;;;;7.00;78.03;97599.94;5116478;28;8934;-56
2022/11/22 02:53:10;;;;;;;;;0.00;0.00;;;;;7.00;78.19;97610.53;5116612;28;9505;-56
2022/11/22 02:55:38;;;;;;;;;0.00;0.00;;;;;7.01;78.37;97607.75;5116973;28;8824;-57
2022/11/22 02:58:07;;;;;;;;;1.00;1.00;;;;;7.02;78.19;97598.81;5116934;28;8832;-57
2022/11/22 03:00:35;;;;;;;;;0.80;0.80;;;;;7.04;78.15;97606.59;5116562;28;8842;-57
2022/11/22 03:03:02;;;;;;;;;1.50;0.25;;;;;7.05;78.21;97597.69;5116726;28;8850;-56
2022/11/22 03:05:30;;;;;;;;;5.20;2.60;;;;;7.09;77.69;97604.28;5116835;28;8808;-56
2022/11/22 03:07:58;;;;;;;;;1.00;1.00;;;;;7.14;77.86;97609.94;5116754;28;8932;-57
2022/11/22 03:10:27;;;;;;;;;1.00;1.00;;;;;7.21;77.94;97618.91;5116321;28;8820;-56
2022/11/22 03:12:55;;;;;;;;;0.75;0.75;;;;;7.26;77.87;97608.66;5117104;28;8860;-57
2022/11/22 03:15:23;;;;;;;;;0.00;0.00;;;;;7.29;77.92;97611.00;5116236;28;8831;-56
2022/11/22 03:17:50;;;;;;;;;0.50;0.25;;;;;7.32;77.95;97615.97;5116363;28;8839;-57
2022/11/22 03:20:18;;;;;;;;;2.20;1.00;;;;;7.35;78.28;97613.03;5116062;28;8828;-55
2022/11/22 03:22:46;;;;;;;;;1.00;0.20;;;;;7.36;77.78;97612.84;5116048;28;8850;-58
2022/11/22 03:25:14;;;;;;;;;3.00;1.00;;;;;7.38;78.04;97625.94;5116493;28;8831;-57
2022/11/22 03:27:42;;;;;;;;;1.00;1.00;;;;;7.39;77.93;97632.88;5116392;28;8812;-57
2022/11/22 03:30:10;;;;;;;;;1.40;1.40;;;;;7.39;78.43;97627.59;5116346;28;8819;-56
2022/11/22 03:32:37;;;;;;;;;3.00;3.00;;;;;7.37;77.96;97633.06;5116403;28;8892;-56
2022/11/22 03:35:06;;;;;;;;;2.00;2.00;;;;;7.36;77.95;97618.16;5116179;28;8800;-57
2022/11/22 03:37:34;;;;;;;;;1.00;1.00;;;;;7.33;78.00;97628.22;5116653;28;8816;-57
2022/11/22 03:40:02;;;;;;;;;1.00;1.00;;;;;7.33;78.31;97633.50;5116476;28;9494;-56
2022/11/22 03:42:29;;;;;;;;;3.00;1.00;;;;;7.30;78.20;97634.69;5116029;28;8823;-57
2022/11/22 03:44:57;;;;;;;;;0.00;0.00;;;;;7.28;78.42;97633.19;5116022;28;8913;-57
2022/11/22 03:47:26;;;;;;;;;1.00;1.00;;;;;7.27;78.14;97647.41;5116402;28;8808;-57
2022/11/22 03:49:54;;;;;;;;;1.00;1.00;;;;;7.29;78.34;97648.88;5115950;28;8820;-56
2022/11/22 03:52:21;;;;;;;;;0.60;0.60;;;;;7.34;78.34;97656.38;5116222;28;8868;-57
2022/11/22 03:54:49;;;;;;;;;1.00;1.00;;;;;7.39;78.08;97665.50;5117611;28;8902;-57
2022/11/22 03:57:16;;;;;;;;;0.25;0.25;;;;;7.45;78.00;97670.16;5120062;28;8852;-57
2022/11/22 03:59:44;;;;;;;;;3.00;3.00;;;;;7.47;77.93;97654.09;5119534;27;9510;-57
2022/11/22 04:02:12;;;;;;;;;0.00;0.00;;;;;7.51;78.38;97658.09;5120360;28;8817;-55
2022/11/22 04:04:40;;;;;;;;;3.00;1.00;;;;;7.52;78.27;97671.19;5120061;28;8852;-57
2022/11/22 04:07:07;;;;;;;;;1.00;1.00;;;;;7.52;77.89;97671.19;5120055;28;8829;-57
2022/11/22 04:09:35;;;;;;;;;1.00;0.50;;;;;7.52;78.00;97673.84;5119756;28;8833;-55
2022/11/22 04:12:03;;;;;;;;;1.00;1.00;;;;;7.55;78.53;97670.03;5119577;28;8822;-57
2022/11/22 04:22:51;;;;;;;;;0.50;0.50;;;;;7.58;78.20;97681.13;5119339;28;8822;-57
2022/11/22 04:25:19;;;;;;;;;0.00;0.00;;;;;7.56;77.95;97676.97;5118898;28;8824;-57
2022/11/22 04:27:46;;;;;;;;;2.00;2.00;;;;;7.53;78.69;97682.59;5118822;28;8816;-55
2022/11/22 04:30:13;;;;;;;;;3.00;2.50;;;;;7.51;78.36;97687.22;5118684;28;8836;-57
2022/11/22 04:32:46;;;;;;;;;0.00;0.00;;;;;7.50;78.30;97693.53;5119139;28;9614;-57
2022/11/22 04:35:13;;;;;;;;;1.00;1.00;;;;;7.49;78.70;97697.97;5118866;28;8848;-57
2022/11/22 04:37:41;;;;;;;;;1.00;0.75;;;;;7.51;78.37;97692.53;5118609;28;8853;-56
2022/11/22 04:40:09;;;;;;;;;0.75;0.75;;;;;7.52;78.37;97702.13;5118823;28;8813;-56
2022/11/22 04:45:23;;;;;;;;;1.00;1.00;;;;;7.43;78.60;97705.72;5118929;28;8865;-57
2022/11/22 04:48:00;;;;;;;;;0.00;0.00;;;;;7.37;78.32;97698.41;5119368;28;9518;-56
2022/11/22 04:53:13;;;;;;;;;0.00;0.00;;;;;7.32;78.97;97698.88;5119020;28;8847;-57
2022/11/22 04:55:41;;;;;;;;;0.00;0.00;;;;;7.31;78.96;97702.50;5118888;28;8828;-58
2022/11/22 04:58:09;;;;;;;;;2.00;1.50;;;;;7.29;78.72;97698.34;5118677;28;8958;-57
2022/11/22 05:00:36;;;;;;;;;4.00;1.00;;;;;7.27;78.72;97698.50;5118499;28;8900;-58
2022/11/22 05:03:04;;;;;;;;;0.00;0.00;;;;;7.26;78.89;97706.59;5118428;28;8946;-58
2022/11/22 05:05:32;;;;;;;;;0.50;0.00;;;;;7.22;79.06;97694.69;5116855;28;8845;-57
2022/11/22 05:08:01;;;;;;;;;0.50;0.50;;;;;7.20;78.88;97696.66;5117694;28;8819;-57
2022/11/22 05:10:55;;;;;;;;;0.00;0.00;;;;;7.16;78.63;97690.84;5117705;28;8824;-57
2022/11/22 05:13:16;;;;;;;;;1.00;1.00;;;;;7.14;78.86;97694.63;5116638;28;8820;-57
2022/11/22 05:15:44;;;;;;;;;0.00;0.00;;;;;7.07;79.07;97699.72;5115173;28;8907;-58
2022/11/22 05:18:13;;;;;;;;;0.00;0.00;;;;;6.99;79.50;97704.13;5114780;28;9489;-57
2022/11/22 05:20:41;;;;;;;;;0.25;0.25;;;;;6.89;79.51;97698.91;5115687;28;8836;-57
2022/11/22 05:26:00;;;;;;;;;0.00;0.00;;;;;6.72;79.56;97706.88;5114873;28;8843;-56
2022/11/22 05:28:29;;;;;;;;;0.00;0.00;;;;;6.66;79.25;97708.31;5115564;28;8819;-57
2022/11/22 05:30:57;;;;;;;;;1.00;1.00;;;;;6.62;79.68;97700.84;5116948;28;8831;-57
2022/11/22 05:33:24;;;;;;;;;0.00;0.00;;;;;6.59;79.92;97706.47;5117314;28;8867;-57
2022/11/22 05:35:52;;;;;;;;;0.00;0.00;;;;;6.53;79.91;97697.28;5116646;28;9556;-56
2022/11/22 05:38:20;;;;;;;;;0.00;0.00;;;;;6.51;79.93;97706.38;5117355;28;8831;-55
2022/11/22 05:40:49;;;;;;;;;3.00;1.00;;;;;6.47;80.09;97712.94;5117183;28;8827;-57
2022/11/22 05:43:17;;;;;;;;;0.40;0.40;;;;;6.43;80.10;97707.13;5116994;28;8828;-55
2022/11/22 05:45:45;;;;;;;;;0.00;0.00;;;;;6.37;80.13;97720.13;5117411;28;9489;-57
2022/11/22 05:48:13;;;;;;;;;1.00;1.00;;;;;6.29;80.67;97718.22;5117170;28;8800;-57
2022/11/22 05:50:40;;;;;;;;;0.00;0.00;;;;;6.22;80.18;97714.50;5117343;28;8828;-55
2022/11/22 05:53:08;;;;;;;;;0.00;0.00;;;;;6.17;80.16;97722.06;5116248;28;8828;-56
2022/11/22 05:55:36;;;;;;;;;0.00;0.00;;;;;6.14;80.26;97726.81;5116896;28;8820;-56
2022/11/22 05:58:04;;;;;;;;;0.00;0.00;;;;;6.09;80.60;97724.63;5116592;28;8919;-57
2022/11/22 06:00:32;;;;;;;;;1.00;1.00;;;;;6.06;80.52;97727.56;5116919;28;8820;-55
2022/11/22 06:02:59;;;;;;;;;0.00;0.00;;;;;6.09;80.46;97729.06;5116271;28;8868;-56
2022/11/22 06:05:27;;;;;;;;;0.00;0.00;;;;;6.08;80.44;97730.06;5116276;28;8816;-55
2022/11/22 06:07:55;;;;;;;;;0.20;0.20;;;;;6.03;80.29;97735.78;5116154;28;8820;-55
2022/11/22 06:10:23;;;;;;;;;0.00;0.00;;;;;5.98;80.04;97735.38;5114768;28;8824;-57
2022/11/22 06:12:51;;;;;;;;;0.00;0.00;;;;;5.95;80.52;97748.06;5114160;28;8873;-58
2022/11/22 06:15:18;;;;;;;;;0.00;0.00;;;;;5.92;80.33;97758.94;5115448;28;8823;-55
2022/11/22 06:17:48;;;;;;;;;0.00;0.00;;;;;5.90;80.87;97760.88;5116351;28;8837;-57
2022/11/22 06:20:19;;;;;;;;;2.20;1.00;;;;;5.86;80.31;97760.31;5117743;28;8848;-55
2022/11/22 06:22:47;;;;;;;;;0.80;0.80;;;;;5.85;80.68;97766.59;5115285;28;9197;-56
2022/11/22 06:25:14;;;;;;;;;1.80;0.00;;;;;5.83;80.51;97770.34;5115581;28;8832;-57
2022/11/22 06:27:42;;;;;;;;;0.00;0.00;;;;;5.81;80.30;97770.50;5115566;28;8808;-57
2022/11/22 06:30:10;;;;;;;;;0.00;0.00;;;;;5.79;80.47;97772.47;5114632;28;8847;-57
2022/11/22 06:32:38;;;;;;;;;0.00;0.00;;;;;5.77;80.71;97774.38;5113836;28;8831;-57
2022/11/22 06:35:06;;;;;;;;;0.00;0.00;;;;;5.76;80.91;97779.81;5114459;28;8954;-57
2022/11/22 06:37:34;;;;;;;;;0.00;0.00;;;;;5.74;80.24;97781.75;5114298;28;8990;-57
2022/11/22 06:40:02;;;;;;;;;0.00;0.00;;;;;5.73;80.92;97782.72;5113724;28;8910;-57
2022/11/22 06:42:30;;;;;;;;;3.00;1.00;;;;;5.68;80.93;97783.16;5112309;28;8862;-57
2022/11/22 06:44:58;;;;;;;;;1.00;1.00;;;;;5.64;80.93;97786.25;5111587;28;8862;-57
2022/11/22 06:47:25;;;;;;;;;1.80;0.60;;;;;5.62;81.12;97782.94;5112394;28;8824;-58
2022/11/22 06:49:53;;;;;;;;;1.00;0.00;;;;;5.60;80.78;97782.22;5112395;28;8844;-58
2022/11/22 06:52:21;;;;;;;;;0.00;0.00;;;;;5.60;81.04;97784.84;5112391;28;8836;-57
2022/11/22 06:54:50;;;;;;;;;0.60;0.00;;;;;5.60;81.06;97795.41;5113337;28;8839;-57
2022/11/22 06:57:21;;;;;;;;;0.00;0.00;;;;;5.60;80.60;97795.41;5113634;28;8958;-57
2022/11/22 06:59:48;;;;;;;;;0.20;0.20;;;;;5.62;80.86;97796.13;5114360;28;8866;-56
2022/11/22 07:02:16;;;;;;;;;1.00;0.00;;;;;5.64;80.45;97796.81;5113912;28;8828;-58
2022/11/22 07:04:44;;;;;;;;;1.00;1.00;;;;;5.71;80.67;97803.19;5114065;28;9521;-57
2022/11/22 07:07:32;;;;;;;;;0.00;0.00;;;;;5.81;80.15;97796.91;5113616;28;8954;-56
2022/11/22 07:10:00;;;;;;;;;0.60;0.60;;;;;5.88;80.36;97819.13;5113507;28;8824;-57
2022/11/22 07:12:27;;;;;;;;;0.00;0.00;;;;;5.97;80.10;97820.03;5113674;28;9650;-56
2022/11/22 07:14:55;;;;;;;;;0.00;0.00;;;;;6.00;80.09;97810.03;5112885;28;8830;-57
2022/11/22 07:17:23;;;;;;;;;1.00;0.60;;;;;5.99;79.78;97818.94;5112200;28;8853;-55
2022/11/22 07:19:51;;;;;;;;;0.00;0.00;;;;;5.98;79.71;97830.47;5111672;28;8824;-58
2022/11/22 07:22:19;;;;;;;;;0.00;0.00;;;;;5.98;79.89;97827.00;5111849;28;8851;-58
2022/11/22 07:24:47;;;;;;;;;0.00;0.00;;;;;5.96;80.28;97826.31;5111866;28;8828;-57
2022/11/22 07:27:15;;;;;;;;;0.40;0.00;;;;;5.94;79.65;97837.03;5111308;28;8962;-58
2022/11/22 07:29:43;;;;;;;;;0.40;0.00;;;;;5.94;79.86;97828.28;5110879;28;8959;-58
2022/11/22 07:32:11;;;;;;;;;0.00;0.00;;;;;5.93;79.89;97829.25;5112543;28;8820;-57
2022/11/22 07:34:39;;;;;;;;;0.00;0.00;;;;;5.91;80.06;97825.94;5112442;28;8879;-57
2022/11/22 07:37:07;;;;;;;;;0.80;0.00;;;;;5.91;80.30;97825.94;5112773;28;9516;-58
2022/11/22 07:39:35;;;;;;;;;0.00;0.00;;;;;5.89;80.10;97831.34;5111809;28;8957;-56
2022/11/22 07:42:03;;;;;;;;;1.00;0.00;;;;;5.89;79.98;97827.88;5111311;28;8823;-57
2022/11/22 07:44:33;;;;;;;;;0.00;0.00;;;;;5.88;80.05;97829.69;5110444;28;8828;-57
2022/11/22 07:47:01;;;;;;;;;0.40;0.40;;;;;5.93;79.64;97834.53;5109915;28;8973;-57
2022/11/22 07:49:29;;;;;;;;;0.00;0.00;;;;;5.96;79.82;97828.94;5111557;28;8831;-57
2022/11/22 07:51:58;;;;;;;;;1.00;0.20;;;;;5.98;79.83;97832.28;5111981;28;9602;-57
2022/11/22 07:54:26;;;;;;;;;0.20;0.20;;;;;6.00;79.97;97825.88;5097957;28;8907;-57
2022/11/22 07:56:55;;;;;;;;;0.00;0.00;;;;;6.04;79.42;97823.78;5091938;28;8958;-57
2022/11/22 07:59:24;;;;;;;;;0.00;0.00;;;;;6.06;79.08;97827.13;5091643;28;8826;-58
2022/11/22 08:01:51;;;;;;;;;0.00;0.00;;;;;6.10;79.47;97824.03;5091749;28;8834;-57
2022/11/22 08:04:19;;;;;;;;;1.40;1.40;;;;;6.19;79.52;97820.50;5090171;28;8838;-58
2022/11/22 08:06:47;;;;;;;;;0.00;0.00;;;;;6.28;79.00;97818.78;5090057;28;8818;-58
2022/11/22 08:09:15;;;;;;;;;0.00;0.00;;;;;6.35;78.92;97814.56;5090004;28;8851;-58
2022/11/22 08:11:44;;;;;;;;;1.00;1.00;;;;;6.44;78.95;97813.69;5091079;28;8911;-57
2022/11/22 08:14:12;;;;;;;;;1.00;0.00;;;;;6.54;78.93;97807.34;5091242;28;8846;-58
2022/11/22 08:16:40;;;;;;;;;0.00;0.00;;;;;6.72;78.20;97810.00;5090313;28;8863;-58
2022/11/22 08:19:07;;;;;;;;;0.40;0.40;;;;;6.91;77.46;97805.41;5091181;28;8826;-57
2022/11/22 08:21:35;;;;;;;;;0.00;0.00;;;;;7.04;77.46;97819.06;5091791;28;8845;-57
2022/11/22 08:24:03;;;;;;;;;0.00;0.00;;;;;7.12;77.05;97810.41;5102583;28;8850;-58
2022/11/22 08:26:31;;;;;;;;;3.00;0.60;;;;;7.13;76.82;97817.34;5111433;28;9596;-58
2022/11/22 08:28:59;;;;;;;;;0.60;0.00;;;;;7.12;77.05;97813.03;5110381;28;8880;-57
2022/11/22 08:31:27;;;;;;;;;0.00;0.00;;;;;7.11;76.85;97814.00;5110471;28;8843;-58
2022/11/22 08:33:55;;;;;;;;;0.00;0.00;;;;;7.10;76.90;97820.28;5111637;28;8832;-57
2022/11/22 08:36:23;;;;;;;;;1.00;1.00;;;;;7.08;76.80;97815.16;5111830;28;8835;-57
2022/11/22 08:38:51;;;;;;;;;1.00;0.00;;;;;7.08;76.90;97811.66;5111947;28;8847;-58
2022/11/22 08:41:19;;;;;;;;;0.00;0.00;;;;;7.06;76.95;97819.75;5114768;28;8823;-58
2022/11/22 08:43:46;;;;;;;;;0.00;0.00;;;;;7.06;77.09;97824.22;5116207;28;8827;-58
2022/11/22 08:46:14;;;;;;;;;0.00;0.00;;;;;7.08;76.69;97825.75;5117236;28;8855;-58
2022/11/22 08:48:42;;;;;;;;;0.00;0.00;;;;;7.13;76.56;97827.94;5117367;28;8824;-58
2022/11/22 08:51:10;;;;;;;;;0.00;0.00;;;;;7.18;76.90;97831.78;5117078;28;8979;-58
2022/11/22 08:53:38;;;;;;;;;1.00;1.00;;;;;7.23;75.88;97833.97;5116437;28;8816;-58
2022/11/22 08:56:06;;;;;;;;;0.40;0.00;;;;;7.26;75.89;97839.78;5116205;28;8839;-57
2022/11/22 08:58:33;;;;;;;;;0.40;0.40;;;;;7.30;75.79;97821.78;5115737;28;8924;-58
2022/11/22 09:01:02;;;;;;;;;0.00;0.00;;;;;7.33;75.95;97834.69;5115196;28;9512;-58
2022/11/22 09:03:30;;;;;;;;;1.00;1.00;;;;;7.36;75.85;97837.88;5114864;28;8820;-58
2022/11/22 09:05:58;;;;;;;;;0.00;0.00;;;;;7.42;75.55;97844.38;5114922;28;8823;-58
2022/11/22 09:08:46;;;;;;;;;0.00;0.00;;;;;7.48;75.39;97854.34;5115577;28;8848;-58
2022/11/22 09:11:35;;;;;;;;;0.20;0.20;;;;;7.52;75.14;97856.56;5115615;28;9613;-58
2022/11/22 09:14:03;;;;;;;;;0.60;0.60;;;;;7.57;74.83;97864.03;5115268;28;8852;-57
2022/11/22 09:16:30;;;;;;;;;1.00;1.00;;;;;7.62;74.60;97867.88;5114813;28;8836;-58
2022/11/22 09:18:58;;;;;;;;;0.00;0.00;;;;;7.68;74.61;97863.75;5115826;28;8827;-57
2022/11/22 09:21:26;;;;;;;;;0.00;0.00;;;;;7.73;73.91;97873.75;5115537;28;8836;-56
2022/11/22 09:23:54;;;;;;;;;0.00;0.00;;;;;7.77;74.79;97861.84;5114835;28;8880;-58
2022/11/22 09:26:23;;;;;;;;;0.75;0.00;;;;;7.83;73.89;97878.94;5115128;28;8828;-56
2022/11/22 09:28:51;;;;;;;;;0.00;0.00;;;;;7.91;74.10;97881.66;5115382;28;8832;-56
2022/11/22 09:31:19;;;;;;;;;0.00;0.00;;;;;7.98;73.73;97875.56;5115513;28;8820;-57
2022/11/22 09:33:48;;;;;;;;;0.00;0.00;;;;;8.07;73.57;97877.25;5116029;28;8844;-57
2022/11/22 09:36:16;;;;;;;;;0.50;0.00;;;;;8.15;72.98;97871.19;5115657;28;8827;-58
2022/11/22 09:38:43;;;;;;;;;0.25;0.25;;;;;8.22;72.50;97865.09;5115932;28;8836;-58
2022/11/22 09:41:11;;;;;;;;;0.00;0.00;;;;;8.30;71.85;97861.69;5115229;28;8832;-55
2022/11/22 09:43:39;;;;;;;;;0.00;0.00;;;;;8.38;72.08;97872.31;5114317;28;8888;-58
2022/11/22 09:46:08;;;;;;;;;0.25;0.25;;;;;8.46;71.58;97864.41;5115300;28;8961;-58
2022/11/22 09:48:36;;;;;;;;;1.00;0.00;;;;;8.53;70.75;97866.22;5114941;28;8819;-57
2022/11/22 09:51:04;;;;;;;;;0.00;0.00;;;;;8.62;70.86;97862.66;5114290;28;8839;-58
2022/11/22 09:53:32;;;;;;;;;0.00;0.00;;;;;8.70;70.56;97860.00;5113298;28;8840;-56
2022/11/22 09:56:03;;;;;;;;;0.25;0.25;;;;;8.90;70.08;97844.63;5114658;28;8843;-58
2022/11/22 09:58:32;;;;;;;;;0.00;0.00;;;;;9.28;69.23;97844.00;5114892;28;8851;-58
2022/11/22 10:00:59;;;;;;;;;0.00;0.00;;;;;9.67;68.24;97839.69;5114969;28;8827;-57
2022/11/22 10:03:27;;;;;;;;;0.00;0.00;;;;;10.12;67.90;97832.81;5115149;28;8840;-58
2022/11/22 10:05:56;;;;;;;;;1.00;0.00;;;;;10.55;66.51;97840.28;5115508;28;8912;-57
2022/11/22 10:08:24;;;;;;;;;0.00;0.00;;;;;10.96;65.10;97832.91;5114661;28;8854;-58
2022/11/22 10:10:52;;;;;;;;;0.00;0.00;;;;;11.57;63.28;97828.28;5114829;28;8839;-58
2022/11/22 10:13:20;;;;;;;;;1.00;0.00;;;;;12.19;63.02;97832.34;5114871;28;8828;-58
2022/11/22 10:15:48;;;;;;;;;0.00;0.00;;;;;12.81;61.74;97825.56;5114892;28;8831;-57
2022/11/22 10:18:16;;;;;;;;;0.00;0.00;;;;;13.29;61.00;97822.25;5113577;28;8924;-58
2022/11/22 10:20:44;;;;;;;;;2.50;1.00;;;;;13.30;60.37;97824.69;5113420;28;8910;-58
2022/11/22 10:23:15;;;;;;;;;0.00;0.00;;;;;12.77;61.38;97824.31;5113852;28;9547;-58
2022/11/22 10:25:43;;;;;;;;;0.00;0.00;;;;;12.19;62.76;97835.88;5113414;28;8958;-58
2022/11/22 10:28:11;;;;;;;;;0.00;0.00;;;;;11.74;64.17;97835.16;5113797;28;8816;-58
2022/11/22 10:30:39;;;;;;;;;0.00;0.00;;;;;11.35;64.10;97834.47;5112914;28;8836;-58
2022/11/22 10:33:08;;;;;;;;;1.00;1.00;;;;;11.23;64.89;97841.22;5112607;28;8855;-56
2022/11/22 10:35:35;;;;;;;;;0.50;0.00;;;;;11.13;64.91;97819.31;5112276;28;8827;-58
2022/11/22 10:38:03;;;;;;;;;0.00;0.00;;;;;11.01;63.74;97820.72;5112327;28;8839;-58
2022/11/22 10:40:32;;;;;;;;;0.00;0.00;;;;;10.89;63.60;97816.81;5111257;28;8843;-58
2022/11/22 10:43:01;;;;;;;;;0.00;0.00;;;;;10.84;64.34;97813.84;5111483;28;8828;-58
2022/11/22 10:45:31;;;;;;;;;1.00;1.00;;;;;10.70;64.35;97817.25;5112456;28;8973;-58
2022/11/22 10:47:59;;;;;;;;;0.00;0.00;;;;;10.69;64.47;97812.94;5113079;28;8827;-58
2022/11/22 10:50:27;;;;;;;;;1.50;1.50;;;;;10.63;64.44;97810.97;5113469;28;8908;-58
2022/11/22 10:52:55;;;;;;;;;0.00;0.00;;;;;10.42;64.86;97816.09;5113886;28;8828;-57
2022/11/22 10:55:23;;;;;;;;;0.00;0.00;;;;;10.24;65.11;97812.81;5114005;28;8904;-58
2022/11/22 10:57:51;;;;;;;;;0.00;0.00;;;;;10.03;65.21;97811.72;5114107;28;8877;-58
2022/11/22 11:00:19;;;;;;;;;3.00;0.00;;;;;9.92;65.79;97820.03;5113113;28;8828;-58
2022/11/22 11:02:47;;;;;;;;;0.00;0.00;;;;;9.91;65.73;97821.88;5113774;28;8844;-58
2022/11/22 11:05:15;;;;;;;;;1.00;1.00;;;;;9.82;65.89;97814.91;5113266;28;8838;-58
2022/11/22 11:07:43;;;;;;;;;0.50;0.50;;;;;9.76;65.49;97826.22;5112677;28;8839;-58
2022/11/22 11:10:16;;;;;;;;;1.00;0.50;;;;;9.67;65.18;97831.72;5113599;28;8835;-58
2022/11/22 11:12:55;;;;;;;;;1.50;0.00;;;;;9.57;65.13;97821.25;5112519;28;8841;-58
2022/11/22 11:15:23;;;;;;;;;0.00;0.00;;;;;9.54;65.43;97828.72;5111226;28;9512;-58
2022/11/22 11:17:52;;;;;;;;;0.00;0.00;;;;;9.48;65.15;97824.91;5111721;28;8844;-58
2022/11/22 11:20:19;;;;;;;;;0.00;0.00;;;;;9.37;65.06;97817.31;5111326;28;8901;-58
2022/11/22 11:22:48;;;;;;;;;0.00;0.00;;;;;9.34;65.79;97814.97;5110672;28;8839;-57
2022/11/22 11:25:39;;;;;;;;;0.00;0.00;;;;;9.35;65.46;97813.16;5110393;28;8870;-58
2022/11/22 11:28:07;;;;;;;;;0.00;0.00;;;;;9.41;65.87;97810.63;5110164;28;8856;-58
2022/11/22 11:30:35;;;;;;;;;0.00;0.00;;;;;9.43;64.99;97811.28;5111041;28;8820;-57
2022/11/22 11:33:04;;;;;;;;;0.00;0.00;;;;;9.50;65.17;97788.38;5110116;28;8836;-58
2022/11/22 11:35:32;;;;;;;;;0.00;0.00;;;;;9.70;64.81;97783.53;5109978;28;8850;-58
2022/11/22 11:38:00;;;;;;;;;0.00;0.00;;;;;9.85;64.22;97779.16;5111892;28;8831;-58
2022/11/22 11:40:27;;;;;;;;;0.00;0.00;;;;;10.00;63.97;97778.31;5111830;28;9683;-58
2022/11/22 11:42:56;;;;;;;;;0.00;0.00;;;;;10.14;63.74;97777.63;5111891;28;8843;-58
2022/11/22 11:45:24;;;;;;;;;0.75;0.75;;;;;10.26;63.65;97778.06;5108564;28;8951;-58
2022/11/22 11:47:52;;;;;;;;;0.00;0.00;;;;;10.33;63.61;97777.19;5109878;28;9300;-58
2022/11/22 11:50:20;;;;;;;;;0.00;0.00;;;;;10.46;63.00;97766.81;5110505;28;8890;-58
2022/11/22 11:52:51;;;;;;;;;0.00;0.00;;;;;10.64;62.48;97783.38;5110696;28;8823;-57
2022/11/22 11:55:20;;;;;;;;;0.00;0.00;;;;;10.63;62.54;97776.38;5110061;28;8946;-58
2022/11/22 11:57:48;;;;;;;;;0.00;0.00;;;;;10.56;63.10;97772.75;5110058;28;8832;-58
2022/11/22 12:00:16;;;;;;;;;0.00;0.00;;;;;10.49;62.90;97776.28;5110462;28;8851;-57
2022/11/22 12:02:49;;;;;;;;;0.00;0.00;;;;;10.31;63.08;97789.03;5111920;28;8812;-57
2022/11/22 12:05:17;;;;;;;;;0.00;0.00;;;;;10.32;62.90;97780.84;5111448;28;8846;-57
2022/11/22 12:07:46;;;;;;;;;0.00;0.00;;;;;10.42;63.20;97780.66;5111785;28;9574;-57
2022/11/22 12:10:14;;;;;;;;;0.00;0.00;;;;;10.45;62.99;97780.28;5111990;28;8862;-56